createdAt,value
2022-11-23T00:01:02.861Z,4.63
2022-11-23T00:05:08.596Z,6.10
2022-11-23T00:10:07.960Z,6.03
2022-11-23T00:15:07.647Z,7.97
2022-11-23T00:20:08.361Z,5.93
2022-11-23T00:25:08.179Z,7.38
2022-11-23T00:30:07.895Z,9.48
2022-11-23T00:35:08.593Z,3.33
2022-11-23T00:40:08.350Z,10.23
2022-11-23T00:45:08.069Z,12.07
2022-11-23T00:50:07.752Z,6.85
2022-11-23T00:55:08.437Z,4.05
2022-11-23T01:00:08.149Z,3.25
2022-11-23T01:05:08.443Z,12.25
2022-11-23T01:10:08.161Z,8.15
2022-11-23T01:15:07.868Z,7.75
2022-11-23T01:20:08.592Z,7.15
2022-11-23T01:25:08.324Z,10.23
2022-11-23T01:30:08.055Z,4.20
2022-11-23T01:35:07.818Z,7.15
2022-11-23T01:40:08.556Z,8.93
2022-11-23T01:45:08.251Z,11.20
2022-11-23T01:50:07.979Z,4.78
2022-11-23T01:55:08.756Z,5.90
2022-11-23T02:00:08.518Z,7.22
2022-11-23T02:05:08.244Z,9.85
2022-11-23T02:10:07.997Z,5.07
2022-11-23T02:15:07.715Z,5.45
2022-11-23T02:20:08.468Z,7.85
2022-11-23T02:25:08.156Z,6.20
2022-11-23T02:30:07.852Z,3.95
2022-11-23T02:35:08.588Z,4.30
2022-11-23T02:40:08.304Z,12.68
2022-11-23T02:45:07.983Z,8.82
2022-11-23T02:50:07.669Z,9.80
2022-11-23T02:55:08.389Z,5.15
2022-11-23T03:00:08.115Z,8.18
2022-11-23T03:05:07.793Z,8.85
2022-11-23T03:10:08.539Z,4.22
2022-11-23T03:15:08.265Z,4.85
2022-11-23T03:20:07.962Z,5.47
2022-11-23T03:25:07.702Z,6.18
2022-11-23T03:30:08.435Z,7.13
2022-11-23T03:35:08.165Z,9.48
2022-11-23T03:40:07.878Z,5.45
2022-11-23T03:45:08.682Z,3.85
2022-11-23T03:50:08.400Z,7.70
2022-11-23T03:55:08.101Z,10.00
2022-11-23T04:00:07.806Z,5.32
2022-11-23T04:05:08.564Z,6.22
2022-11-23T04:10:08.310Z,6.90
2022-11-23T04:15:08.010Z,10.52
2022-11-23T04:20:07.749Z,8.25
2022-11-23T04:25:08.437Z,6.15
2022-11-23T04:30:08.168Z,9.55
2022-11-23T04:35:07.861Z,7.82
2022-11-23T04:40:08.570Z,6.85
2022-11-23T04:45:08.296Z,6.38
2022-11-23T04:50:08.043Z,12.35
2022-11-23T04:55:07.775Z,7.07
2022-11-23T05:00:08.517Z,9.63
2022-11-23T05:05:02.274Z,11.15
2022-11-23T05:10:02.022Z,12.57
2022-11-23T05:15:01.816Z,8.00
2022-11-23T05:20:02.599Z,8.98
2022-11-23T05:25:02.381Z,9.23
2022-11-23T05:30:02.446Z,7.35
2022-11-23T05:35:02.312Z,9.82
2022-11-23T05:40:02.107Z,5.47
2022-11-23T05:45:01.917Z,6.80
2022-11-23T05:50:02.694Z,9.18
2022-11-23T05:55:02.531Z,9.20
2022-11-23T06:00:02.521Z,7.32
2022-11-23T06:05:02.481Z,10.85
2022-11-23T06:10:02.407Z,6.72
2022-11-23T06:15:02.327Z,9.45
2022-11-23T06:20:02.261Z,9.75
2022-11-23T06:25:02.175Z,9.00
2022-11-23T06:30:02.115Z,10.68
2022-11-23T06:35:02.072Z,10.30
2022-11-23T06:40:02.008Z,9.35
2022-11-23T06:45:01.826Z,10.13
2022-11-23T06:50:02.574Z,9.10
2022-11-23T06:55:02.434Z,15.10
2022-11-23T07:00:02.343Z,6.47
2022-11-23T07:05:02.174Z,9.45
2022-11-23T07:10:06.799Z,12.15
2022-11-23T07:15:02.237Z,8.13
2022-11-23T07:20:02.056Z,11.23
2022-11-23T07:25:01.871Z,9.77
2022-11-23T07:30:02.624Z,8.13
2022-11-23T07:35:02.393Z,6.05
2022-11-23T07:40:02.782Z,7.32
2022-11-23T07:45:01.803Z,9.23
2022-11-23T07:50:02.545Z,4.47
2022-11-23T07:55:02.285Z,7.22
2022-11-23T08:00:02.130Z,10.25
2022-11-23T08:05:01.993Z,8.27
2022-11-23T08:10:01.782Z,15.93
2022-11-23T08:15:02.630Z,28.05
2022-11-23T08:20:02.357Z,15.50
2022-11-23T08:25:02.205Z,10.20
2022-11-23T08:30:02.128Z,6.45
2022-11-23T08:35:02.075Z,7.07
2022-11-23T08:40:02.271Z,7.43
2022-11-23T08:45:02.087Z,7.25
2022-11-23T08:50:02.040Z,8.32
2022-11-23T08:55:01.957Z,9.27
2022-11-23T09:00:01.803Z,8.25
2022-11-23T09:05:02.791Z,7.65
2022-11-23T09:10:02.710Z,9.10
2022-11-23T09:15:02.644Z,14.75
2022-11-23T09:20:02.560Z,13.98
2022-11-23T09:25:02.477Z,11.75
2022-11-23T09:30:02.293Z,6.30
2022-11-23T09:35:02.234Z,10.82
2022-11-23T09:40:02.072Z,22.58
2022-11-23T09:45:01.893Z,12.93
2022-11-23T09:50:02.753Z,6.88
2022-11-23T09:55:02.620Z,7.75
2022-11-23T10:00:02.490Z,6.75
2022-11-23T10:05:02.351Z,7.57
2022-11-23T10:10:12.159Z,0
2022-11-23T10:15:01.870Z,11.73
2022-11-23T10:20:02.672Z,7.05
2022-11-23T10:25:02.465Z,8.15
2022-11-23T10:30:02.285Z,5.97
2022-11-23T10:35:02.080Z,31.05
2022-11-23T10:40:01.840Z,23.25
2022-11-23T10:45:02.612Z,26.40
2022-11-23T10:50:02.455Z,20.88
2022-11-23T10:55:02.364Z,5.97
2022-11-23T11:00:02.097Z,8.63
2022-11-23T11:05:01.915Z,5.40
2022-11-23T11:10:02.684Z,8.52
2022-11-23T11:15:11.665Z,4.07
2022-11-23T11:20:12.905Z,0
2022-11-23T11:25:02.877Z,3.88
2022-11-23T11:30:02.983Z,9.10
2022-11-23T11:35:01.987Z,10.55
2022-11-23T11:40:01.940Z,5.95
2022-11-23T11:45:01.998Z,4.70
2022-11-23T11:50:01.871Z,6.15
2022-11-23T11:55:02.899Z,6.32
2022-11-23T12:00:02.912Z,7.20
2022-11-23T12:05:02.716Z,5.88
2022-11-23T12:10:12.611Z,0
2022-11-23T12:15:11.052Z,6.35
2022-11-23T12:20:02.410Z,7.75
2022-11-23T12:25:02.248Z,8.27
2022-11-23T12:30:02.074Z,6.50
2022-11-23T12:35:11.914Z,0
2022-11-23T12:40:02.760Z,9.45
2022-11-23T12:45:02.580Z,3.83
2022-11-23T12:50:02.381Z,5.45
2022-11-23T12:55:02.139Z,5.43
2022-11-23T13:00:01.920Z,5.50
2022-11-23T13:05:01.679Z,7.20
2022-11-23T13:10:02.547Z,6.25
2022-11-23T13:15:02.490Z,5.43
2022-11-23T13:20:02.444Z,4.00
2022-11-23T13:25:02.221Z,6.13
2022-11-23T13:30:01.981Z,5.97
2022-11-23T13:35:01.793Z,7.43
2022-11-23T13:40:02.554Z,4.85
2022-11-23T13:45:12.365Z,0
2022-11-23T13:50:02.119Z,9.32
2022-11-23T13:55:07.381Z,5.25
2022-11-23T14:00:02.567Z,5.57
2022-11-23T14:05:02.386Z,6.90
2022-11-23T14:10:08.433Z,6.30
2022-11-23T14:15:01.845Z,6.30
2022-11-23T14:20:02.793Z,5.20
2022-11-23T14:25:12.800Z,0
2022-11-23T14:30:02.755Z,4.88
2022-11-23T14:35:02.683Z,3.55
2022-11-23T14:40:02.770Z,5.72
2022-11-23T14:45:02.624Z,4.40
2022-11-23T14:50:02.384Z,3.72
2022-11-23T14:55:02.200Z,4.65
2022-11-23T15:00:04.853Z,3.42
2022-11-23T15:05:02.552Z,2.38
2022-11-23T15:10:02.659Z,2.53
2022-11-23T15:15:02.541Z,2.15
2022-11-23T15:20:02.586Z,2.58
2022-11-23T15:25:02.505Z,4.68
2022-11-23T15:30:02.421Z,4.20
2022-11-23T15:35:02.368Z,5.75
2022-11-23T15:40:02.248Z,3.65
2022-11-23T15:45:02.146Z,3.35
2022-11-23T15:50:02.125Z,8.23
2022-11-23T15:55:05.789Z,5.05
2022-11-23T16:00:01.926Z,3.40
2022-11-23T16:05:02.799Z,2.92
2022-11-23T16:10:02.730Z,3.00
2022-11-23T16:15:02.525Z,5.30
2022-11-23T16:20:02.364Z,4.00
2022-11-23T16:25:12.170Z,0
2022-11-23T16:30:03.589Z,4.38
2022-11-23T16:35:02.572Z,6.10
2022-11-23T16:40:02.413Z,8.02
2022-11-23T16:45:02.793Z,7.20
2022-11-23T16:50:02.837Z,4.53
2022-11-23T16:55:02.818Z,5.25
2022-11-23T17:00:02.743Z,3.35
2022-11-23T17:05:03.026Z,3.95
2022-11-23T17:10:02.024Z,5.35
2022-11-23T17:15:01.923Z,4.90
2022-11-23T17:20:04.597Z,5.75
2022-11-23T17:25:02.752Z,5.53
2022-11-23T17:30:02.630Z,3.28
2022-11-23T17:35:02.553Z,5.55
2022-11-23T17:40:02.377Z,7.18
2022-11-23T17:45:02.222Z,4.20
2022-11-23T17:50:02.012Z,5.35
2022-11-23T17:55:01.753Z,4.88
2022-11-23T18:00:03.773Z,7.03
2022-11-23T18:05:01.823Z,6.70
2022-11-23T18:10:02.565Z,5.63
2022-11-23T18:15:02.309Z,5.85
2022-11-23T18:20:02.182Z,5.93
2022-11-23T18:25:01.959Z,3.40
2022-11-23T18:30:01.693Z,4.60
2022-11-23T18:35:02.417Z,4.45
2022-11-23T18:40:02.252Z,4.63
2022-11-23T18:45:01.995Z,3.83
2022-11-23T18:50:06.553Z,4.97
2022-11-23T18:55:02.671Z,6.38
2022-11-23T19:00:02.879Z,3.13
2022-11-23T19:05:02.334Z,2.97
2022-11-23T19:10:02.063Z,2.80
2022-11-23T19:15:01.898Z,2.70
2022-11-23T19:20:02.806Z,3.67
2022-11-23T19:25:02.893Z,4.65
2022-11-23T19:30:02.813Z,2.60
2022-11-23T19:35:02.840Z,3.20
2022-11-23T19:40:02.868Z,2.80
2022-11-23T19:45:02.803Z,4.43
2022-11-23T19:50:02.938Z,2.75
2022-11-23T19:55:01.824Z,3.85
2022-11-23T20:00:02.702Z,7.82
2022-11-23T20:05:02.693Z,2.72
2022-11-23T20:10:02.581Z,5.93
2022-11-23T20:15:02.386Z,5.55
2022-11-23T20:20:02.199Z,4.38
2022-11-23T20:25:01.927Z,5.82
2022-11-23T20:30:01.715Z,4.05
2022-11-23T20:35:02.660Z,5.97
2022-11-23T20:40:02.563Z,4.30
2022-11-23T20:45:02.404Z,4.80
2022-11-23T20:50:02.201Z,6.03
2022-11-23T20:55:01.944Z,6.38
2022-11-23T21:00:01.771Z,5.60
2022-11-23T21:05:02.525Z,4.05
2022-11-23T21:10:02.345Z,5.22
2022-11-23T21:15:02.207Z,8.68
2022-11-23T21:20:02.005Z,10.52
2022-11-23T21:25:01.736Z,6.88
2022-11-23T21:30:02.726Z,7.18
2022-11-23T21:35:02.516Z,6.28
2022-11-23T21:40:02.341Z,5.80
2022-11-23T21:45:02.285Z,6.07
2022-11-23T21:50:02.109Z,6.15
2022-11-23T21:55:02.051Z,9.13
2022-11-23T22:00:01.824Z,10.52
2022-11-23T22:05:15.505Z,9.25
2022-11-23T22:10:08.231Z,13.23
2022-11-23T22:15:07.975Z,11.52
2022-11-23T22:20:07.676Z,14.05
2022-11-23T22:25:08.381Z,17.42
2022-11-23T22:30:08.104Z,11.88
2022-11-23T22:35:07.814Z,10.43
2022-11-23T22:40:08.576Z,13.30
2022-11-23T22:45:08.270Z,14.52
2022-11-23T22:50:07.981Z,13.30
2022-11-23T22:55:07.682Z,16.65
2022-11-23T23:00:08.444Z,13.25
2022-11-23T23:05:08.174Z,12.85
2022-11-23T23:10:07.892Z,13.70
2022-11-23T23:15:08.599Z,15.07
2022-11-23T23:20:08.326Z,14.60
2022-11-23T23:25:08.111Z,14.32
2022-11-23T23:30:07.854Z,19.83
2022-11-23T23:35:08.610Z,16.45
2022-11-23T23:40:08.450Z,14.20
2022-11-23T23:45:08.220Z,18.40
2022-11-23T23:50:07.921Z,10.50
2022-11-23T23:55:08.620Z,13.48
